createdAt,value
2018-07-06T00:00:39.994Z,14.07
2018-07-06T00:03:27.849Z,16.67
2018-07-06T00:06:15.210Z,18.97
2018-07-06T00:09:02.730Z,19.03
2018-07-06T00:11:50.230Z,18.83
2018-07-06T00:14:38.102Z,18.37
2018-07-06T00:17:24.984Z,18.03
2018-07-06T00:20:06.398Z,17.20
2018-07-06T00:22:53.488Z,14.50
2018-07-06T00:25:40.639Z,17.77
2018-07-06T00:28:27.553Z,16.43
2018-07-06T00:31:14.412Z,18.93
2018-07-06T00:34:01.661Z,16.03
2018-07-06T00:36:48.825Z,16.67
2018-07-06T00:39:35.888Z,14.97
2018-07-06T00:42:23.272Z,15.23
2018-07-06T00:45:10.498Z,16.87
2018-07-06T00:47:57.629Z,17.07
2018-07-06T00:50:45.150Z,17.93
2018-07-06T00:53:32.262Z,20.70
2018-07-06T00:56:19.973Z,19.03
2018-07-06T00:59:07.089Z,15.83
2018-07-06T01:01:54.646Z,18.03
2018-07-06T01:04:41.700Z,18.30
2018-07-06T01:07:29.031Z,16.90
2018-07-06T01:10:16.451Z,19.33
2018-07-06T01:13:04.638Z,18.23
2018-07-06T01:15:51.847Z,21.37
2018-07-06T01:18:39.278Z,15.97
2018-07-06T01:21:26.462Z,17.57
2018-07-06T01:24:13.963Z,19.50
2018-07-06T01:27:01.603Z,17.57
2018-07-06T01:29:48.718Z,16.90
2018-07-06T01:32:36.033Z,19.60
2018-07-06T01:35:23.119Z,20.43
2018-07-06T01:38:10.597Z,15.67
2018-07-06T01:40:57.647Z,18.67
2018-07-06T01:43:44.993Z,17.93
2018-07-06T01:46:32.470Z,19.17
2018-07-06T01:49:19.451Z,23.80
2018-07-06T01:52:06.443Z,18.20
2018-07-06T01:54:53.663Z,19.70
2018-07-06T01:57:41.070Z,15.70
2018-07-06T02:00:28.320Z,24.80
2018-07-06T02:03:15.696Z,19.07
2018-07-06T02:06:02.684Z,15.67
2018-07-06T02:08:49.734Z,19.23
2018-07-06T02:11:37.111Z,20.33
2018-07-06T02:14:24.160Z,19.20
2018-07-06T02:17:11.649Z,16.73
2018-07-06T02:19:58.778Z,15.43
2018-07-06T02:22:45.783Z,21.70
2018-07-06T02:25:33.222Z,20.27
2018-07-06T02:28:20.207Z,16.87
2018-07-06T02:31:07.465Z,18.90
2018-07-06T02:33:54.488Z,16.43
2018-07-06T02:36:41.376Z,16.07
2018-07-06T02:39:28.348Z,17.90
2018-07-06T02:42:15.311Z,22.20
2018-07-06T02:45:02.555Z,18.90
2018-07-06T02:47:49.545Z,18.07
2018-07-06T02:50:36.412Z,20.70
2018-07-06T02:53:17.446Z,16.60
2018-07-06T02:56:04.433Z,19.47
2018-07-06T02:58:51.551Z,19.77
2018-07-06T03:01:38.848Z,22.73
2018-07-06T03:04:25.897Z,18.87
2018-07-06T03:07:12.710Z,20.17
2018-07-06T03:09:59.555Z,26.10
2018-07-06T03:12:40.559Z,18.53
2018-07-06T03:15:27.757Z,21.00
2018-07-06T03:18:14.728Z,18.20
2018-07-06T03:21:01.799Z,18.43
2018-07-06T03:23:49.595Z,20.40
2018-07-06T03:26:37.232Z,19.93
2018-07-06T03:29:24.528Z,20.53
2018-07-06T03:32:11.761Z,18.77
2018-07-06T03:34:58.952Z,18.00
2018-07-06T03:37:46.075Z,18.10
2018-07-06T03:40:33.389Z,16.30
2018-07-06T03:43:21.247Z,18.03
2018-07-06T03:46:08.414Z,19.67
2018-07-06T03:48:55.516Z,21.87
2018-07-06T03:51:42.574Z,18.37
2018-07-06T03:54:29.823Z,20.67
2018-07-06T03:57:16.807Z,17.53
2018-07-06T04:00:04.396Z,18.07
2018-07-06T04:02:51.489Z,21.60
2018-07-06T04:05:38.621Z,16.27
2018-07-06T04:08:25.719Z,22.23
2018-07-06T04:11:12.724Z,18.37
2018-07-06T04:14:00.080Z,22.73
2018-07-06T04:16:47.357Z,17.53
2018-07-06T04:19:34.860Z,19.17
2018-07-06T04:22:22.377Z,22.43
2018-07-06T04:25:09.623Z,22.67
2018-07-06T04:27:56.614Z,23.30
2018-07-06T04:30:44.201Z,20.37
2018-07-06T04:33:31.360Z,23.37
2018-07-06T04:36:18.876Z,19.40
2018-07-06T04:39:06.258Z,21.43
2018-07-06T04:41:53.444Z,19.67
2018-07-06T04:44:40.562Z,19.90
2018-07-06T04:47:28.295Z,19.33
2018-07-06T04:50:15.244Z,18.70
2018-07-06T04:53:02.633Z,20.53
2018-07-06T04:55:49.545Z,18.57
2018-07-06T04:58:36.600Z,22.37
2018-07-06T05:01:23.700Z,21.63
2018-07-06T05:04:11.928Z,19.67
2018-07-06T05:06:54.145Z,19.37
2018-07-06T05:09:41.332Z,18.20
2018-07-06T05:12:28.447Z,21.30
2018-07-06T05:15:15.564Z,22.30
2018-07-06T05:18:02.788Z,17.93
2018-07-06T05:20:49.996Z,18.47
2018-07-06T05:23:36.847Z,18.07
2018-07-06T05:26:24.107Z,19.53
2018-07-06T05:29:11.083Z,17.53
2018-07-06T05:31:58.317Z,19.70
2018-07-06T05:34:45.451Z,21.00
2018-07-06T05:37:32.700Z,19.43
2018-07-06T05:40:20.076Z,20.50
2018-07-06T05:43:07.522Z,18.33
2018-07-06T05:45:54.619Z,17.80
2018-07-06T05:48:41.737Z,18.17
2018-07-06T05:51:28.750Z,20.47
2018-07-06T05:54:16.247Z,21.63
2018-07-06T05:57:03.724Z,17.60
2018-07-06T05:59:50.814Z,19.67
2018-07-06T06:02:37.800Z,14.17
2018-07-06T06:05:24.762Z,15.87
2018-07-06T06:07:53.486Z,19.17
2018-07-06T06:10:24.528Z,19.57
2018-07-06T06:12:55.897Z,13.87
2018-07-06T06:15:27.123Z,16.90
2018-07-06T06:17:58.493Z,13.87
2018-07-06T06:20:29.697Z,14.00
2018-07-06T06:23:01.089Z,16.47
2018-07-06T06:25:32.692Z,17.83
2018-07-06T06:28:03.934Z,16.67
2018-07-06T06:30:35.268Z,16.43
2018-07-06T06:33:06.693Z,17.13
2018-07-06T06:35:38.083Z,14.10
2018-07-06T06:38:09.230Z,15.63
2018-07-06T06:40:41.113Z,15.70
2018-07-06T06:43:12.196Z,14.43
2018-07-06T06:45:43.449Z,17.47
2018-07-06T06:48:14.895Z,16.27
2018-07-06T06:50:46.363Z,14.80
2018-07-06T06:53:17.796Z,15.33
2018-07-06T06:55:49.184Z,15.50
2018-07-06T06:58:20.634Z,18.33
2018-07-06T07:00:52.357Z,15.30
2018-07-06T07:03:23.983Z,17.60
2018-07-06T07:05:55.358Z,16.77
2018-07-06T07:08:26.746Z,14.93
2018-07-06T07:10:58.262Z,19.00
2018-07-06T07:13:29.693Z,16.90
2018-07-06T07:16:01.008Z,16.77
2018-07-06T07:18:32.423Z,17.03
2018-07-06T07:21:03.886Z,16.13
2018-07-06T07:23:35.319Z,18.67
2018-07-06T07:26:06.766Z,14.10
2018-07-06T07:28:38.373Z,14.93
2018-07-06T07:31:09.982Z,15.50
2018-07-06T07:33:41.483Z,14.27
2018-07-06T07:36:12.987Z,14.73
2018-07-06T07:38:44.372Z,17.17
2018-07-06T07:41:16.141Z,11.90
2018-07-06T07:43:47.639Z,12.90
2018-07-06T07:46:18.996Z,13.83
2018-07-06T07:48:50.146Z,14.23
2018-07-06T07:52:05.303Z,12.47
2018-07-06T07:54:44.288Z,15.00
2018-07-06T07:57:15.473Z,13.83
2018-07-06T07:59:47.627Z,13.73
2018-07-06T08:02:19.500Z,14.27
2018-07-06T08:04:51.125Z,15.63
2018-07-06T08:07:22.736Z,14.37
2018-07-06T08:09:54.023Z,15.67
2018-07-06T08:12:25.898Z,13.47
2018-07-06T08:14:57.171Z,14.63
2018-07-06T08:17:28.849Z,10.63
2018-07-06T08:20:00.207Z,14.00
2018-07-06T08:22:32.039Z,12.00
2018-07-06T08:25:03.348Z,13.93
2018-07-06T08:27:34.705Z,11.17
2018-07-06T08:30:05.994Z,10.83
2018-07-06T08:32:37.347Z,11.63
2018-07-06T08:35:24.330Z,11.60
2018-07-06T08:38:02.737Z,12.40
2018-07-06T08:40:34.337Z,14.30
2018-07-06T08:43:06.812Z,14.27
2018-07-06T08:45:39.022Z,15.57
2018-07-06T08:48:10.433Z,10.60
2018-07-06T08:50:41.775Z,11.87
2018-07-06T08:53:13.211Z,14.30
2018-07-06T08:55:44.389Z,13.63
2018-07-06T08:58:15.769Z,15.30
2018-07-06T09:00:47.174Z,19.97
2018-07-06T09:03:18.349Z,15.93
2018-07-06T09:05:49.773Z,17.87
2018-07-06T09:08:20.915Z,15.73
2018-07-06T09:10:52.207Z,13.87
2018-07-06T09:13:23.544Z,17.97
2018-07-06T09:15:54.713Z,12.00
2018-07-06T09:18:25.900Z,14.33
2018-07-06T09:20:57.256Z,14.90
2018-07-06T09:23:28.480Z,14.70
2018-07-06T09:26:00.228Z,14.67
2018-07-06T09:28:31.058Z,12.00
2018-07-06T09:31:02.452Z,14.73
2018-07-06T09:33:33.803Z,11.47
2018-07-06T09:36:05.040Z,13.60
2018-07-06T09:38:36.387Z,13.13
2018-07-06T09:41:07.685Z,12.87
2018-07-06T09:43:38.837Z,15.37
2018-07-06T09:46:10.040Z,12.63
2018-07-06T09:48:41.742Z,9.50
2018-07-06T09:51:12.755Z,11.00
2018-07-06T09:53:44.164Z,10.10
2018-07-06T09:56:15.577Z,12.10
2018-07-06T09:58:47.183Z,12.83
2018-07-06T10:01:18.330Z,13.43
2018-07-06T10:03:49.680Z,13.73
2018-07-06T10:06:20.719Z,11.60
2018-07-06T10:08:52.734Z,9.70
2018-07-06T10:11:24.445Z,11.83
2018-07-06T10:13:55.259Z,12.20
2018-07-06T10:16:26.002Z,10.57
2018-07-06T10:18:56.732Z,9.87
2018-07-06T10:21:28.089Z,13.17
2018-07-06T10:23:59.272Z,9.53
2018-07-06T10:26:30.434Z,10.30
2018-07-06T10:30:24.153Z,11.90
2018-07-06T10:32:55.431Z,8.97
2018-07-06T10:35:26.795Z,11.33
2018-07-06T10:37:58.004Z,15.70
2018-07-06T10:40:29.363Z,8.30
2018-07-06T10:43:00.965Z,7.20
2018-07-06T10:45:31.696Z,10.60
2018-07-06T10:48:02.364Z,8.57
2018-07-06T10:50:33.585Z,8.83
2018-07-06T10:53:04.771Z,10.90
2018-07-06T10:55:35.992Z,12.40
2018-07-06T10:58:06.850Z,9.47
2018-07-06T11:00:37.540Z,8.60
2018-07-06T11:03:08.225Z,11.30
2018-07-06T11:05:38.942Z,8.97
2018-07-06T11:08:09.712Z,11.10
2018-07-06T11:10:40.392Z,10.40
2018-07-06T11:13:11.115Z,9.03
2018-07-06T11:15:41.275Z,7.33
2018-07-06T11:18:12.006Z,10.10
2018-07-06T11:20:42.668Z,8.23
2018-07-06T11:23:13.334Z,10.57
2018-07-06T11:25:44.032Z,10.03
2018-07-06T11:28:14.943Z,10.47
2018-07-06T11:30:45.728Z,9.27
2018-07-06T11:33:16.416Z,9.20
2018-07-06T11:35:46.457Z,9.73
2018-07-06T11:38:17.146Z,9.70
2018-07-06T11:40:47.881Z,7.10
2018-07-06T11:43:18.598Z,7.93
2018-07-06T11:45:49.336Z,8.70
2018-07-06T11:48:20.602Z,7.07
2018-07-06T11:50:52.195Z,9.83
2018-07-06T11:53:23.929Z,8.77
2018-07-06T11:55:55.082Z,8.13
2018-07-06T11:58:26.064Z,7.27
2018-07-06T12:00:57.525Z,8.43
2018-07-06T12:03:28.680Z,7.50
2018-07-06T12:05:59.863Z,7.93
2018-07-06T12:08:31.019Z,8.03
2018-07-06T12:11:02.376Z,6.70
2018-07-06T12:13:33.601Z,7.97
2018-07-06T12:16:05.316Z,6.97
2018-07-06T12:18:37.356Z,5.53
2018-07-06T12:21:09.259Z,6.45
2018-07-06T12:23:40.547Z,5.73
2018-07-06T12:26:11.984Z,7.97
2018-07-06T12:28:43.344Z,8.03
2018-07-06T12:31:14.698Z,5.17
2018-07-06T12:33:45.948Z,4.67
2018-07-06T12:36:17.152Z,5.42
2018-07-06T12:38:48.495Z,6.20
2018-07-06T12:41:19.751Z,8.18
2018-07-06T12:43:50.451Z,6.73
2018-07-06T12:51:11.903Z,6.17
2018-07-06T12:53:43.307Z,7.33
2018-07-06T12:56:14.646Z,8.93
2018-07-06T12:58:46.745Z,5.77
2018-07-06T13:01:18.281Z,5.27
2018-07-06T13:03:49.879Z,6.77
2018-07-06T13:06:21.040Z,5.40
2018-07-06T13:08:52.170Z,6.12
2018-07-06T13:11:23.543Z,4.72
2018-07-06T13:13:54.763Z,7.12
2018-07-06T13:16:25.980Z,4.55
2018-07-06T13:18:57.313Z,6.53
2018-07-06T13:21:28.007Z,7.50
2018-07-06T13:23:59.665Z,5.60
2018-07-06T13:26:30.968Z,6.05
2018-07-06T13:29:03.056Z,5.95
2018-07-06T13:31:34.115Z,5.10
2018-07-06T13:34:05.320Z,6.22
2018-07-06T13:36:36.906Z,6.15
2018-07-06T13:39:08.299Z,5.10
2018-07-06T13:41:39.734Z,6.55
2018-07-06T13:44:10.818Z,4.35
2018-07-06T13:46:42.251Z,5.72
2018-07-06T13:49:13.422Z,6.80
2018-07-06T13:51:44.774Z,4.28
2018-07-06T13:54:16.724Z,5.30
2018-07-06T13:56:48.007Z,4.12
2018-07-06T13:59:19.445Z,5.92
2018-07-06T14:01:50.765Z,5.05
2018-07-06T14:04:22.232Z,7.05
2018-07-06T14:06:53.725Z,5.97
2018-07-06T14:09:25.137Z,6.60
2018-07-06T14:11:56.500Z,8.68
2018-07-06T14:14:27.886Z,5.22
2018-07-06T14:16:59.121Z,5.05
2018-07-06T14:19:30.279Z,5.50
2018-07-06T14:22:01.927Z,4.28
2018-07-06T14:24:33.283Z,6.50
2018-07-06T14:27:04.727Z,4.33
2018-07-06T14:29:36.014Z,6.60
2018-07-06T14:32:07.469Z,4.55
2018-07-06T14:34:38.783Z,7.12
2018-07-06T14:37:09.378Z,5.83
2018-07-06T14:39:40.615Z,6.93
2018-07-06T14:42:11.943Z,5.80
2018-07-06T14:44:43.201Z,5.33
2018-07-06T14:47:14.668Z,6.60
2018-07-06T14:49:45.726Z,5.20
2018-07-06T14:52:16.922Z,5.77
2018-07-06T14:54:47.368Z,7.00
2018-07-06T14:57:18.566Z,4.00
2018-07-06T14:59:49.950Z,4.20
2018-07-06T15:02:21.302Z,4.83
2018-07-06T15:04:52.649Z,3.87
2018-07-06T15:07:23.891Z,6.07
2018-07-06T15:09:55.109Z,3.70
2018-07-06T15:12:26.514Z,7.37
2018-07-06T15:14:57.653Z,6.33
2018-07-06T15:17:29.104Z,4.77
2018-07-06T15:20:00.254Z,5.37
2018-07-06T15:22:31.691Z,3.83
2018-07-06T15:25:02.875Z,5.70
2018-07-06T15:27:34.044Z,4.27
2018-07-06T15:30:05.638Z,5.47
2018-07-06T15:32:36.788Z,4.23
2018-07-06T15:35:08.245Z,4.73
2018-07-06T15:37:39.842Z,4.70
2018-07-06T15:40:11.176Z,5.57
2018-07-06T15:42:42.438Z,6.87
2018-07-06T15:45:13.590Z,4.77
2018-07-06T15:47:45.382Z,8.57
2018-07-06T15:50:16.952Z,4.00
2018-07-06T15:52:48.256Z,3.70
2018-07-06T15:55:19.324Z,5.23
2018-07-06T15:57:50.706Z,6.07
2018-07-06T16:00:21.871Z,3.83
2018-07-06T16:02:53.239Z,3.93
2018-07-06T16:05:24.828Z,5.23
2018-07-06T16:07:56.237Z,6.90
2018-07-06T16:10:27.436Z,6.83
2018-07-06T16:12:58.841Z,4.53
2018-07-06T16:15:30.899Z,5.53
2018-07-06T16:18:01.953Z,5.57
2018-07-06T16:20:33.435Z,3.80
2018-07-06T16:23:04.763Z,4.63
2018-07-06T16:25:36.052Z,4.87
2018-07-06T16:28:07.149Z,4.80
2018-07-06T16:30:38.525Z,5.17
2018-07-06T16:33:09.891Z,5.13
2018-07-06T16:35:41.447Z,4.90
2018-07-06T16:38:12.739Z,5.20
2018-07-06T16:40:44.088Z,5.07
2018-07-06T16:43:15.270Z,6.50
2018-07-06T16:45:46.493Z,8.00
2018-07-06T16:48:17.625Z,9.90
2018-07-06T16:50:50.251Z,10.47
2018-07-06T16:53:21.610Z,8.07
2018-07-06T16:55:52.987Z,7.33
2018-07-06T16:58:24.232Z,7.93
2018-07-06T17:00:55.415Z,7.07
2018-07-06T17:03:26.744Z,4.43
2018-07-06T17:05:58.707Z,6.93
2018-07-06T17:08:29.903Z,5.90
2018-07-06T17:11:01.107Z,6.40
2018-07-06T17:13:32.507Z,6.10
2018-07-06T17:16:04.168Z,5.43
2018-07-06T17:18:35.304Z,5.40
2018-07-06T17:21:06.996Z,6.73
2018-07-06T17:23:38.544Z,6.43
2018-07-06T17:26:09.638Z,4.93
2018-07-06T17:28:41.077Z,6.23
2018-07-06T17:31:12.405Z,4.23
2018-07-06T17:33:43.656Z,5.60
2018-07-06T17:36:15.020Z,6.80
2018-07-06T17:38:46.202Z,6.03
2018-07-06T17:41:17.475Z,4.33
2018-07-06T17:43:48.791Z,5.70
2018-07-06T17:46:20.448Z,7.57
2018-07-06T17:48:51.763Z,6.47
2018-07-06T17:51:23.163Z,5.37
2018-07-06T17:53:54.325Z,6.43
2018-07-06T17:56:25.795Z,5.17
2018-07-06T17:58:56.949Z,6.87
2018-07-06T18:01:28.675Z,5.03
2018-07-06T18:03:59.955Z,6.30
2018-07-06T18:06:31.141Z,5.07
2018-07-06T18:09:02.752Z,7.40
2018-07-06T18:11:34.297Z,4.60
2018-07-06T18:15:08.594Z,6.53
2018-07-06T18:17:40.391Z,4.53
2018-07-06T18:20:18.245Z,6.43
2018-07-06T18:22:51.086Z,6.43
2018-07-06T18:25:22.356Z,7.57
2018-07-06T18:27:53.548Z,7.33
2018-07-06T18:30:25.016Z,5.83
2018-07-06T18:32:56.370Z,4.40
2018-07-06T18:35:27.836Z,4.70
2018-07-06T18:37:59.571Z,4.77
2018-07-06T18:40:30.866Z,7.17
2018-07-06T18:43:02.255Z,6.10
2018-07-06T18:45:33.652Z,6.40
2018-07-06T18:48:06.527Z,5.80
2018-07-06T18:50:38.287Z,4.17
2018-07-06T18:53:09.717Z,5.10
2018-07-06T18:55:40.970Z,5.27
2018-07-06T18:58:12.465Z,5.80
2018-07-06T19:00:43.204Z,4.40
2018-07-06T19:03:14.562Z,6.53
2018-07-06T19:05:46.164Z,6.30
2018-07-06T19:08:17.363Z,9.03
2018-07-06T19:10:48.513Z,18.17
2018-07-06T19:13:19.756Z,7.53
2018-07-06T19:15:51.359Z,5.33
2018-07-06T19:18:22.699Z,6.23
2018-07-06T19:20:54.413Z,5.23
2018-07-06T19:23:25.664Z,4.50
2018-07-06T19:25:56.947Z,5.80
2018-07-06T19:28:28.541Z,4.40
2018-07-06T19:30:59.828Z,6.70
2018-07-06T19:33:31.208Z,5.83
2018-07-06T19:36:02.599Z,5.83
2018-07-06T19:38:33.807Z,6.03
2018-07-06T19:41:05.069Z,5.10
2018-07-06T19:43:36.801Z,5.17
2018-07-06T19:46:08.258Z,7.77
2018-07-06T19:48:38.999Z,4.63
2018-07-06T19:51:10.249Z,5.07
2018-07-06T19:53:42.138Z,5.07
2018-07-06T19:56:13.520Z,4.63
2018-07-06T19:58:44.960Z,6.10
2018-07-06T20:01:16.503Z,51.20
2018-07-06T20:03:47.937Z,34.73
2018-07-06T20:06:19.312Z,30.30
2018-07-06T20:08:50.656Z,16.27
2018-07-06T20:11:21.915Z,10.33
2018-07-06T20:13:53.206Z,10.33
2018-07-06T20:16:24.244Z,8.97
2018-07-06T20:18:55.445Z,7.70
2018-07-06T20:21:26.425Z,5.93
2018-07-06T20:23:57.815Z,7.90
2018-07-06T20:26:29.187Z,10.43
2018-07-06T20:29:00.862Z,17.53
2018-07-06T20:31:32.131Z,16.50
2018-07-06T20:34:03.176Z,17.23
2018-07-06T20:36:34.651Z,14.90
2018-07-06T20:39:06.120Z,7.30
2018-07-06T20:41:37.539Z,9.07
2018-07-06T20:44:08.862Z,15.87
2018-07-06T20:46:40.085Z,14.00
2018-07-06T20:49:11.483Z,12.90
2018-07-06T20:51:42.934Z,11.07
2018-07-06T20:54:14.441Z,6.80
2018-07-06T20:56:45.737Z,7.07
2018-07-06T20:59:17.029Z,8.27
2018-07-06T21:01:48.072Z,9.43
2018-07-06T21:04:19.914Z,8.20
2018-07-06T21:06:51.212Z,8.63
2018-07-06T21:09:22.843Z,7.77
2018-07-06T21:11:54.233Z,8.37
2018-07-06T21:14:25.640Z,7.33
2018-07-06T21:16:56.840Z,8.73
2018-07-06T21:19:27.985Z,8.37
2018-07-06T21:21:59.626Z,9.13
2018-07-06T21:24:30.727Z,7.13
2018-07-06T21:27:02.018Z,8.47
2018-07-06T21:29:32.833Z,9.10
2018-07-06T21:32:04.619Z,8.43
2018-07-06T21:34:36.654Z,8.07
2018-07-06T21:37:08.074Z,11.50
2018-07-06T21:39:39.283Z,7.60
2018-07-06T21:42:10.492Z,7.27
2018-07-06T21:44:42.029Z,7.80
2018-07-06T21:47:13.900Z,10.10
2018-07-06T21:49:45.243Z,12.40
2018-07-06T21:52:16.648Z,10.37
2018-07-06T21:54:47.802Z,11.60
2018-07-06T21:57:19.040Z,11.37
2018-07-06T21:59:50.363Z,10.37
2018-07-06T22:02:21.985Z,12.03
2018-07-06T22:04:53.344Z,12.83
2018-07-06T22:07:24.746Z,12.60
2018-07-06T22:09:56.397Z,11.03
2018-07-06T22:12:27.801Z,11.80
2018-07-06T22:14:58.375Z,8.67
2018-07-06T22:17:29.684Z,10.83
2018-07-06T22:20:01.374Z,9.87
2018-07-06T22:22:32.498Z,9.73
2018-07-06T22:25:04.012Z,8.77
2018-07-06T22:27:35.228Z,8.37
2018-07-06T22:30:07.131Z,8.70
2018-07-06T22:32:38.364Z,8.40
2018-07-06T22:35:09.429Z,9.83
2018-07-06T22:37:40.590Z,8.57
2018-07-06T22:40:11.976Z,8.67
2018-07-06T22:42:43.928Z,7.90
2018-07-06T22:45:15.084Z,8.40
2018-07-06T22:47:46.336Z,8.93
2018-07-06T22:50:17.566Z,8.53
2018-07-06T22:52:49.211Z,8.13
2018-07-06T22:55:20.513Z,8.63
2018-07-06T22:57:51.703Z,10.17
2018-07-06T23:00:24.544Z,8.63
2018-07-06T23:03:00.973Z,8.20
2018-07-06T23:05:32.279Z,9.57
2018-07-06T23:08:03.572Z,8.17
2018-07-06T23:10:34.956Z,9.17
2018-07-06T23:13:06.996Z,10.10
2018-07-06T23:15:38.149Z,8.80
2018-07-06T23:18:09.722Z,9.47
2018-07-06T23:20:41.173Z,9.60
2018-07-06T23:23:13.343Z,8.13
2018-07-06T23:25:47.668Z,8.37
2018-07-06T23:28:19.121Z,11.20
2018-07-06T23:30:49.705Z,8.40
2018-07-06T23:33:21.055Z,8.70
2018-07-06T23:35:52.356Z,9.77
2018-07-06T23:38:24.003Z,8.40
2018-07-06T23:40:55.548Z,8.20
2018-07-06T23:43:27.183Z,9.87
2018-07-06T23:45:58.317Z,8.60
2018-07-06T23:48:32.525Z,8.77
2018-07-06T23:51:03.680Z,9.50
2018-07-06T23:53:35.062Z,10.00
2018-07-06T23:56:06.408Z,9.00
2018-07-06T23:58:37.620Z,8.80
